Time;durP1;ratioP1;P1;durP2;ratioP2;P2;SDS_P1;SDS_P2;PMS_P1;PMS_P2;Temp;Humidity;BMP_temperature;BMP_pressure;BME280_temperature;BME280_humidity;BME280_pressure;Samples;Min_cycle;Max_cycle;Signal;HPM_P1;HPM_P2
2023/12/25 00:00:19;;;;;;;3.30;1.40;;;26.00;69.80;;;;;;5069681;28;20278;-68
2023/12/25 00:02:46;;;;;;;4.90;1.30;;;26.30;67.40;;;;;;5055724;28;20206;-67
2023/12/25 00:05:14;;;;;;;5.33;1.20;;;26.30;66.50;;;;;;5065156;28;20190;-71
2023/12/25 00:07:41;;;;;;;5.50;1.70;;;26.10;65.50;;;;;;5059870;28;20547;-69
2023/12/25 00:10:08;;;;;;;6.93;1.47;;;25.90;66.10;;;;;;5069223;28;20336;-68
2023/12/25 00:12:36;;;;;;;5.23;1.47;;;25.60;66.30;;;;;;5054095;28;20198;-73
2023/12/25 00:15:04;;;;;;;5.00;1.37;;;25.80;66.90;;;;;;5061636;28;20288;-68
2023/12/25 00:17:31;;;;;;;7.33;1.60;;;26.00;65.70;;;;;;5054985;28;20670;-69
2023/12/25 00:19:58;;;;;;;5.30;1.30;;;25.90;66.60;;;;;;5052620;28;20198;-73
2023/12/25 00:22:26;;;;;;;4.70;1.33;;;25.90;67.50;;;;;;5060186;28;20191;-74
2023/12/25 00:24:53;;;;;;;8.57;2.03;;;26.10;66.30;;;;;;5064442;28;20179;-70
2023/12/25 00:27:21;;;;;;;4.37;1.50;;;26.50;65.90;;;;;;5050635;28;20187;-71
2023/12/25 00:29:48;;;;;;;4.77;1.30;;;26.70;65.10;;;;;;5056082;28;20218;-73
2023/12/25 00:32:16;;;;;;;3.87;1.40;;;26.60;64.60;;;;;;5056634;28;20644;-67
2023/12/25 00:34:43;;;;;;;5.20;1.27;;;26.80;63.90;;;;;;5040444;28;20631;-68
2023/12/25 00:37:11;;;;;;;4.30;1.20;;;26.80;63.20;;;;;;5050377;28;20208;-71
2023/12/25 00:39:38;;;;;;;4.20;1.13;;;26.60;63.00;;;;;;5051285;28;20176;-67
2023/12/25 00:42:05;;;;;;;8.10;1.40;;;26.40;61.50;;;;;;5056808;28;20479;-67
2023/12/25 00:44:33;;;;;;;2.67;1.13;;;26.60;62.20;;;;;;5061432;28;20214;-66
2023/12/25 00:47:00;;;;;;;4.30;1.50;;;26.80;61.50;;;;;;5058748;28;20184;-68
2023/12/25 00:49:27;;;;;;;5.20;1.07;;;26.90;62.00;;;;;;5061003;28;20180;-66
2023/12/25 00:51:55;;;;;;;1.37;0.90;;;26.60;60.60;;;;;;5065417;28;20191;-66
2023/12/25 00:54:22;;;;;;;4.77;1.23;;;26.50;59.70;;;;;;5068895;28;20700;-67
2023/12/25 00:56:50;;;;;;;4.77;1.30;;;26.50;58.90;;;;;;5069362;28;20256;-67
2023/12/25 00:59:17;;;;;;;3.07;1.27;;;26.90;61.50;;;;;;5067862;28;20629;-67
2023/12/25 01:01:44;;;;;;;7.63;1.40;;;27.30;60.60;;;;;;5065887;28;20195;-67
2023/12/25 01:04:12;;;;;;;5.57;1.30;;;27.50;60.30;;;;;;5054275;28;20194;-67
2023/12/25 01:06:39;;;;;;;3.23;1.17;;;27.70;59.50;;;;;;5061393;28;20270;-68
2023/12/25 01:09:06;;;;;;;5.97;1.50;;;27.80;58.80;;;;;;5062684;28;20201;-67
2023/12/25 01:11:39;;;;;;;1.67;1.07;;;28.10;58.90;;;;;;5062514;28;20718;-67
2023/12/25 01:14:07;;;;;;;2.93;1.27;;;28.20;55.40;;;;;;5060908;28;20175;-68
2023/12/25 01:16:34;;;;;;;2.50;1.07;;;28.10;55.40;;;;;;5052229;28;20584;-68
2023/12/25 01:19:02;;;;;;;3.17;1.30;;;28.20;56.80;;;;;;5057190;28;20179;-68
2023/12/25 01:21:29;;;;;;;4.33;1.40;;;28.40;57.20;;;;;;5066876;28;20187;-68
2023/12/25 01:23:57;;;;;;;4.77;1.77;;;28.30;57.60;;;;;;5069402;28;20669;-67
2023/12/25 01:26:24;;;;;;;4.47;1.40;;;28.10;56.40;;;;;;5051251;28;20212;-68
2023/12/25 01:28:51;;;;;;;8.63;1.83;;;28.20;57.40;;;;;;5053762;28;20180;-68
2023/12/25 01:31:19;;;;;;;3.93;1.50;;;27.90;55.80;;;;;;5059176;28;20190;-69
2023/12/25 01:33:46;;;;;;;4.10;1.37;;;27.70;56.30;;;;;;5063100;28;20278;-68
2023/12/25 01:36:13;;;;;;;3.53;1.20;;;28.10;56.00;;;;;;5075235;28;20203;-68
2023/12/25 01:38:41;;;;;;;3.37;1.40;;;28.20;53.30;;;;;;5073700;28;20321;-73
2023/12/25 01:41:08;;;;;;;5.10;1.40;;;28.20;54.40;;;;;;5074811;28;20311;-73
2023/12/25 01:43:35;;;;;;;4.33;1.27;;;28.40;55.40;;;;;;5075743;28;20194;-74
2023/12/25 01:46:03;;;;;;;4.17;1.53;;;28.30;54.90;;;;;;5057987;28;20207;-73
2023/12/25 01:48:31;;;;;;;2.07;1.40;;;28.80;55.00;;;;;;5070300;28;20176;-73
2023/12/25 01:51:00;;;;;;;2.93;1.20;;;28.90;50.80;;;;;;5054756;28;20202;-74
2023/12/25 01:53:28;;;;;;;1.60;0.80;;;29.30;52.00;;;;;;5064903;28;20221;-74
2023/12/25 01:55:55;;;;;;;4.67;1.47;;;29.10;49.80;;;;;;5074401;28;20273;-72
2023/12/25 01:58:22;;;;;;;2.70;1.30;;;29.40;50.00;;;;;;5053048;28;20322;-75
2023/12/25 02:00:50;;;;;;;2.73;1.53;;;29.30;50.20;;;;;;5054209;28;20214;-75
2023/12/25 02:03:17;;;;;;;1.50;1.23;;;28.90;50.10;;;;;;5049592;28;20185;-73
2023/12/25 02:05:46;;;;;;;5.67;1.50;;;28.60;51.50;;;;;;5054761;28;20188;-73
2023/12/25 02:08:14;;;;;;;4.77;1.23;;;29.00;50.80;;;;;;5048959;28;20180;-73
2023/12/25 02:10:42;;;;;;;2.70;1.40;;;29.40;51.10;;;;;;5054725;28;20184;-70
2023/12/25 02:13:09;;;;;;;2.80;1.50;;;29.50;49.80;;;;;;5054058;28;20713;-74
2023/12/25 02:15:39;;;;;;;2.93;1.20;;;29.80;50.00;;;;;;5054578;28;20275;-73
2023/12/25 02:18:06;;;;;;;1.53;0.90;;;29.10;49.90;;;;;;5049132;28;20282;-75
2023/12/25 02:20:34;;;;;;;2.73;0.93;;;29.30;48.30;;;;;;5054908;28;20222;-73
2023/12/25 02:23:07;;;;;;;3.47;1.03;;;29.10;48.40;;;;;;5054284;28;20180;-73
2023/12/25 02:25:37;;;;;;;1.53;0.93;;;29.40;49.20;;;;;;5049419;28;20176;-72
2023/12/25 02:28:05;;;;;;;1.30;0.97;;;29.70;48.00;;;;;;5060550;28;20194;-71
2023/12/25 02:30:32;;;;;;;1.40;0.90;;;29.70;49.20;;;;;;5053235;28;20192;-71
2023/12/25 02:33:04;;;;;;;3.03;1.10;;;29.80;51.70;;;;;;5054491;28;20184;-74
2023/12/25 02:35:32;;;;;;;2.00;0.90;;;30.00;51.70;;;;;;5069442;28;20188;-74
2023/12/25 02:37:59;;;;;;;3.47;0.93;;;30.20;51.10;;;;;;5069897;28;20184;-74
2023/12/25 02:40:26;;;;;;;5.70;1.10;;;29.80;51.10;;;;;;5059218;28;20215;-75
2023/12/25 02:42:54;;;;;;;2.20;0.67;;;29.50;53.30;;;;;;5052537;28;20203;-72
2023/12/25 02:45:21;;;;;;;2.77;1.00;;;29.20;53.70;;;;;;5054768;28;20176;-72
2023/12/25 02:47:48;;;;;;;5.00;0.73;;;29.20;53.40;;;;;;5063744;28;20186;-69
2023/12/25 02:50:16;;;;;;;2.77;1.07;;;29.80;53.40;;;;;;5053543;28;20638;-72
2023/12/25 02:52:43;;;;;;;3.93;0.80;;;30.00;53.00;;;;;;5057939;28;20182;-74
2023/12/25 02:55:10;;;;;;;3.80;1.30;;;29.60;54.60;;;;;;5071504;28;20288;-74
2023/12/25 02:57:37;;;;;;;4.07;0.77;;;29.30;55.60;;;;;;5053484;28;20220;-76
2023/12/25 03:00:06;;;;;;;1.70;0.77;;;29.40;56.30;;;;;;5052119;28;20226;-71
2023/12/25 03:02:33;;;;;;;4.00;1.10;;;29.40;54.80;;;;;;5051746;28;20258;-72
2023/12/25 03:05:00;;;;;;;4.07;0.90;;;29.50;54.40;;;;;;5058930;28;20175;-75
2023/12/25 03:07:28;;;;;;;3.67;1.00;;;29.60;54.70;;;;;;5066490;28;20172;-69
2023/12/25 03:09:55;;;;;;;3.47;1.03;;;29.30;56.00;;;;;;5068611;28;20191;-71
2023/12/25 03:12:22;;;;;;;6.00;1.47;;;29.60;56.30;;;;;;5056156;28;20226;-70
2023/12/25 03:14:50;;;;;;;4.50;1.07;;;29.40;57.60;;;;;;5072897;28;20520;-70
2023/12/25 03:17:17;;;;;;;5.03;1.30;;;29.40;56.80;;;;;;5054958;28;20292;-71
2023/12/25 03:19:44;;;;;;;4.77;1.23;;;29.80;56.00;;;;;;5057527;28;20641;-72
2023/12/25 03:22:14;;;;;;;5.97;1.37;;;29.60;57.20;;;;;;5063254;28;20250;-72
2023/12/25 03:24:42;;;;;;;4.53;1.20;;;29.80;57.20;;;;;;5060273;28;20184;-71
2023/12/25 03:27:09;;;;;;;4.63;1.40;;;29.60;57.00;;;;;;5060727;28;20188;-75
2023/12/25 03:29:36;;;;;;;7.63;1.10;;;29.40;58.50;;;;;;5046490;28;20721;-69
2023/12/25 03:32:04;;;;;;;4.63;1.10;;;29.50;57.90;;;;;;5048124;28;20330;-72
2023/12/25 03:34:31;;;;;;;4.13;1.50;;;29.60;58.30;;;;;;5051940;28;20176;-71
2023/12/25 03:36:58;;;;;;;5.43;1.40;;;29.80;57.70;;;;;;5056136;28;20608;-74
2023/12/25 03:39:26;;;;;;;6.82;1.25;;;29.90;57.90;;;;;;5048847;28;20180;-70
2023/12/25 03:41:53;;;;;;;3.97;1.50;;;30.60;56.80;;;;;;5034661;28;20236;-70
2023/12/25 03:44:20;;;;;;;6.50;1.50;;;30.70;55.80;;;;;;5055037;28;20190;-69
2023/12/25 03:46:48;;;;;;;5.78;1.25;;;29.90;57.80;;;;;;5057036;28;20199;-70
2023/12/25 03:49:15;;;;;;;5.93;1.92;;;29.90;58.30;;;;;;5051792;28;20547;-70
2023/12/25 03:51:42;;;;;;;2.42;0.82;;;30.30;57.40;;;;;;5057240;28;20190;-74
2023/12/25 03:54:10;;;;;;;3.40;1.20;;;30.50;56.40;;;;;;5060653;28;20179;-74
2023/12/25 03:56:37;;;;;;;8.70;1.42;;;30.70;56.30;;;;;;5066259;28;20241;-74
2023/12/25 03:59:04;;;;;;;7.50;1.23;;;30.90;56.20;;;;;;5061508;28;20591;-70
2023/12/25 04:01:31;;;;;;;5.32;1.60;;;30.80;55.80;;;;;;5040512;28;20267;-67
2023/12/25 04:03:59;;;;;;;4.43;1.15;;;30.40;57.00;;;;;;5052071;28;20184;-68
2023/12/25 04:06:26;;;;;;;4.72;1.10;;;30.50;57.30;;;;;;5052116;28;20183;-67
2023/12/25 04:08:54;;;;;;;4.05;1.10;;;30.60;57.40;;;;;;5054050;28;20241;-67
2023/12/25 04:11:22;;;;;;;6.05;1.58;;;30.80;56.80;;;;;;5058061;28;20654;-68
2023/12/25 04:13:53;;;;;;;4.60;1.35;;;31.30;55.30;;;;;;5054351;28;20175;-68
2023/12/25 04:16:22;;;;;;;8.18;1.60;;;31.20;56.70;;;;;;5055056;28;20207;-67
2023/12/25 04:18:52;;;;;;;3.85;1.10;;;31.20;56.60;;;;;;5053062;28;20241;-68
2023/12/25 04:21:27;;;;;;;7.13;1.45;;;31.00;55.70;;;;;;5049881;28;20210;-67
2023/12/25 04:23:55;;;;;;;5.18;1.35;;;30.00;58.50;;;;;;5048467;28;20203;-68
2023/12/25 04:26:23;;;;;;;3.80;1.20;;;29.60;60.50;;;;;;5052563;28;20644;-67
2023/12/25 04:28:51;;;;;;;8.43;2.78;;;29.70;59.70;;;;;;5047811;28;20188;-68
2023/12/25 04:31:19;;;;;;;9.13;2.20;;;29.20;61.40;;;;;;5052099;28;20180;-66
2023/12/25 04:33:46;;;;;;;9.03;1.40;;;29.00;62.40;;;;;;5050754;28;20229;-68
2023/12/25 04:36:14;;;;;;;6.53;1.67;;;28.80;62.70;;;;;;5050102;28;20346;-66
2023/12/25 04:38:41;;;;;;;4.50;1.20;;;28.30;64.60;;;;;;5046922;28;20194;-67
2023/12/25 04:41:09;;;;;;;7.73;1.40;;;28.20;65.30;;;;;;5047429;28;20716;-67
2023/12/25 04:43:36;;;;;;;3.63;1.23;;;28.20;65.50;;;;;;5029223;28;20182;-67
2023/12/25 04:46:04;;;;;;;5.30;1.10;;;27.80;65.50;;;;;;5047120;28;20184;-67
2023/12/25 04:48:31;;;;;;;5.20;1.40;;;27.90;65.60;;;;;;5041443;28;20191;-67
2023/12/25 04:51:00;;;;;;;4.73;1.37;;;27.60;66.20;;;;;;5056702;28;20187;-66
2023/12/25 04:53:29;;;;;;;5.20;1.30;;;27.50;67.70;;;;;;5053313;28;20179;-66
2023/12/25 04:55:57;;;;;;;5.90;1.13;;;27.20;68.00;;;;;;5061259;28;20210;-67
2023/12/25 04:58:24;;;;;;;8.23;1.10;;;27.10;67.80;;;;;;5052760;28;20192;-68
2023/12/25 05:00:52;;;;;;;5.17;1.57;;;27.10;68.70;;;;;;5047069;28;20176;-67
2023/12/25 05:03:21;;;;;;;3.83;1.30;;;27.20;68.70;;;;;;5060109;28;20207;-68
2023/12/25 05:05:49;;;;;;;4.20;1.20;;;27.20;68.00;;;;;;5059408;28;20529;-68
2023/12/25 05:08:18;;;;;;;5.23;1.50;;;26.80;69.40;;;;;;5054875;28;20192;-67
2023/12/25 05:10:45;;;;;;;6.47;1.57;;;27.10;69.50;;;;;;5051674;28;20598;-71
2023/12/25 05:13:13;;;;;;;7.43;1.63;;;27.20;68.90;;;;;;5062158;28;20256;-75
2023/12/25 05:15:40;;;;;;;7.03;2.73;;;27.10;69.10;;;;;;5063122;28;20190;-69
2023/12/25 05:18:08;;;;;;;7.13;2.20;;;27.00;68.80;;;;;;5053276;28;20611;-75
2023/12/25 05:20:35;;;;;;;6.87;1.47;;;27.00;68.90;;;;;;5051264;28;20270;-69
2023/12/25 05:23:02;;;;;;;4.97;1.77;;;26.80;69.70;;;;;;5064472;28;20188;-72
2023/12/25 05:25:30;;;;;;;6.20;1.50;;;26.80;70.00;;;;;;5067279;28;20236;-74
2023/12/25 05:27:57;;;;;;;5.10;1.57;;;26.80;69.80;;;;;;5063752;28;20275;-69
2023/12/25 05:30:25;;;;;;;6.30;1.47;;;26.50;70.40;;;;;;5051015;28;20188;-68
2023/12/25 05:32:52;;;;;;;9.20;1.57;;;26.50;71.10;;;;;;5064022;28;20175;-67
2023/12/25 05:35:19;;;;;;;5.67;1.50;;;26.40;71.10;;;;;;5058924;28;20188;-66
2023/12/25 05:37:47;;;;;;;4.20;1.33;;;26.40;71.60;;;;;;5064498;28;20250;-66
2023/12/25 05:40:14;;;;;;;10.30;1.73;;;26.30;71.60;;;;;;5063106;28;20634;-66
2023/12/25 05:42:41;;;;;;;5.93;1.50;;;26.20;72.70;;;;;;5052156;28;20188;-68
2023/12/25 05:45:09;;;;;;;9.47;1.43;;;26.10;73.20;;;;;;5051056;28;20614;-66
2023/12/25 05:47:39;;;;;;;6.13;1.30;;;26.10;73.20;;;;;;5060353;28;20231;-67
2023/12/25 05:50:10;;;;;;;3.30;1.17;;;26.00;73.60;;;;;;5068531;28;20194;-67
2023/12/25 05:52:37;;;;;;;6.83;1.60;;;25.90;73.80;;;;;;5057892;28;20579;-68
2023/12/25 05:55:05;;;;;;;7.30;1.43;;;25.90;73.30;;;;;;5064307;28;20183;-67
2023/12/25 05:57:32;;;;;;;5.07;1.63;;;25.90;74.30;;;;;;5069039;28;20235;-68
2023/12/25 05:59:59;;;;;;;7.33;1.40;;;25.80;74.30;;;;;;5049910;28;20194;-70
2023/12/25 06:02:28;;;;;;;5.13;1.20;;;25.70;74.70;;;;;;5043924;28;20236;-67
2023/12/25 06:04:55;;;;;;;6.30;1.40;;;25.70;75.10;;;;;;5065471;28;20188;-66
2023/12/25 06:07:23;;;;;;;5.77;1.60;;;25.70;75.30;;;;;;5063202;28;20278;-69
2023/12/25 06:09:51;;;;;;;3.93;1.20;;;25.80;75.10;;;;;;5063117;28;20192;-67
2023/12/25 06:12:18;;;;;;;5.57;1.40;;;25.60;75.00;;;;;;5064402;28;20172;-69
2023/12/25 06:14:45;;;;;;;7.10;1.20;;;25.60;75.50;;;;;;5063803;28;20180;-68
2023/12/25 06:17:13;;;;;;;6.50;1.30;;;25.50;75.30;;;;;;5067249;28;20214;-68
2023/12/25 06:19:40;;;;;;;3.40;1.10;;;25.60;76.00;;;;;;5059919;28;20187;-71
2023/12/25 06:22:08;;;;;;;6.03;1.60;;;25.50;75.70;;;;;;5063149;28;20179;-65
2023/12/25 06:24:35;;;;;;;4.50;1.60;;;25.60;75.90;;;;;;5071743;28;20175;-68
2023/12/25 06:27:05;;;;;;;7.77;1.50;;;25.50;76.00;;;;;;5063160;28;20180;-68
2023/12/25 06:29:33;;;;;;;5.03;1.30;;;25.50;76.10;;;;;;5059418;28;20237;-70
2023/12/25 06:32:00;;;;;;;7.47;1.97;;;25.50;76.30;;;;;;5058004;28;20183;-67
2023/12/25 06:34:28;;;;;;;7.93;1.83;;;25.40;76.40;;;;;;5057676;28;20642;-69
2023/12/25 06:36:55;;;;;;;11.60;1.70;;;25.40;76.60;;;;;;5059922;28;20674;-72
2023/12/25 06:39:22;;;;;;;4.77;1.37;;;25.40;76.70;;;;;;5054996;28;20642;-68
2023/12/25 06:41:49;;;;;;;6.67;1.43;;;25.30;76.90;;;;;;5054449;28;20227;-71
2023/12/25 06:44:17;;;;;;;6.07;1.30;;;25.40;77.30;;;;;;5059349;28;20179;-73
2023/12/25 06:46:44;;;;;;;5.13;1.20;;;25.30;77.40;;;;;;5054562;28;20187;-67
2023/12/25 06:49:11;;;;;;;4.63;1.50;;;25.20;78.20;;;;;;5060840;28;20187;-67
2023/12/25 06:51:38;;;;;;;6.33;1.93;;;25.10;79.10;;;;;;5048184;28;20271;-70
2023/12/25 06:54:07;;;;;;;6.07;1.80;;;25.00;79.90;;;;;;5060624;28;20179;-69
2023/12/25 06:56:34;;;;;;;8.10;1.73;;;24.80;80.40;;;;;;5050384;28;20216;-70
2023/12/25 06:59:01;;;;;;;6.90;1.40;;;24.70;80.50;;;;;;5055739;28;20180;-67
2023/12/25 07:01:29;;;;;;;8.77;1.67;;;24.60;80.70;;;;;;5066519;28;20184;-72
2023/12/25 07:03:57;;;;;;;9.03;1.77;;;24.60;81.20;;;;;;5056620;28;20198;-68
2023/12/25 07:06:24;;;;;;;5.73;1.50;;;24.60;81.50;;;;;;5063177;28;20187;-75
2023/12/25 07:08:52;;;;;;;7.23;1.53;;;24.50;81.80;;;;;;5056792;28;20190;-66
2023/12/25 07:11:20;;;;;;;6.77;1.47;;;24.40;82.20;;;;;;5051992;28;20187;-71
2023/12/25 07:13:47;;;;;;;6.97;1.50;;;24.50;82.40;;;;;;5057238;28;20192;-69
2023/12/25 07:16:22;;;;;;;5.20;1.60;;;24.60;83.40;;;;;;5067721;28;20203;-72
2023/12/25 07:18:54;;;;;;;10.47;1.83;;;24.50;84.20;;;;;;5050245;28;20657;-73
2023/12/25 07:21:21;;;;;;;6.57;2.00;;;24.30;85.10;;;;;;5059213;28;20654;-70
2023/12/25 07:23:49;;;;;;;9.83;2.63;;;24.20;86.00;;;;;;5059740;28;20191;-77
2023/12/25 07:26:20;;;;;;;7.03;2.47;;;24.00;86.30;;;;;;5064148;28;20197;-69
2023/12/25 07:28:48;;;;;;;6.77;2.67;;;23.80;86.80;;;;;;5061809;28;20237;-72
2023/12/25 07:31:16;;;;;;;8.53;2.93;;;23.60;87.40;;;;;;5060802;28;20183;-69
2023/12/25 07:33:44;;;;;;;5.87;2.30;;;23.60;87.70;;;;;;5037704;28;20545;-75
2023/12/25 07:36:11;;;;;;;4.97;2.30;;;23.50;87.70;;;;;;5060595;28;20297;-68
2023/12/25 07:38:41;;;;;;;6.37;2.43;;;23.50;87.70;;;;;;5066152;28;20279;-69
2023/12/25 07:41:12;;;;;;;9.17;3.10;;;23.50;88.00;;;;;;5064502;28;20719;-69
2023/12/25 07:43:39;;;;;;;7.63;3.03;;;23.50;88.00;;;;;;5065435;28;20638;-74
2023/12/25 07:46:09;;;;;;;8.37;3.10;;;23.50;87.90;;;;;;5059546;28;20198;-73
2023/12/25 07:48:37;;;;;;;8.47;3.23;;;23.60;87.90;;;;;;5036236;28;20184;-73
2023/12/25 07:51:04;;;;;;;8.53;2.83;;;23.60;87.40;;;;;;5067557;28;20667;-75
2023/12/25 07:53:32;;;;;;;9.23;3.27;;;23.60;87.50;;;;;;5051876;28;20175;-74
2023/12/25 07:55:59;;;;;;;9.47;2.97;;;23.60;87.20;;;;;;5058283;28;20179;-68
2023/12/25 07:58:26;;;;;;;7.63;3.10;;;23.70;87.20;;;;;;5056435;28;20226;-69
2023/12/25 08:00:54;;;;;;;8.30;3.10;;;23.70;87.20;;;;;;5061275;28;20194;-70
2023/12/25 08:03:21;;;;;;;8.10;3.00;;;23.70;87.50;;;;;;5062147;28;20184;-69
2023/12/25 08:05:48;;;;;;;7.37;3.50;;;23.70;87.40;;;;;;5055026;28;20203;-70
2023/12/25 08:08:16;;;;;;;4.93;2.80;;;23.70;87.50;;;;;;5050506;28;20263;-70
2023/12/25 08:10:43;;;;;;;9.97;2.90;;;23.80;87.30;;;;;;5056089;28;20581;-67
2023/12/25 08:13:10;;;;;;;7.50;3.00;;;23.70;87.30;;;;;;5061277;28;20241;-70
2023/12/25 08:15:38;;;;;;;7.03;3.37;;;23.80;87.50;;;;;;5052198;28;20183;-68
2023/12/25 08:18:06;;;;;;;10.03;3.40;;;23.70;87.60;;;;;;5061711;28;20215;-69
2023/12/25 08:20:34;;;;;;;8.60;3.10;;;23.70;87.50;;;;;;5060813;28;20195;-67
2023/12/25 08:23:01;;;;;;;12.53;3.67;;;23.70;87.60;;;;;;5052960;28;20654;-67
2023/12/25 08:25:28;;;;;;;7.37;3.30;;;23.80;87.70;;;;;;5062145;28;20179;-68
2023/12/25 08:27:56;;;;;;;9.40;3.87;;;23.80;87.80;;;;;;5071517;28;20167;-68
2023/12/25 08:30:23;;;;;;;14.50;4.03;;;23.80;87.80;;;;;;5072071;28;20190;-68
2023/12/25 08:32:50;;;;;;;7.67;4.03;;;23.70;87.90;;;;;;5057693;28;20201;-66
2023/12/25 08:35:18;;;;;;;9.37;4.07;;;23.60;88.20;;;;;;5053191;28;20195;-67
2023/12/25 08:37:45;;;;;;;5.73;3.80;;;23.60;88.30;;;;;;5049793;28;20208;-72
2023/12/25 08:40:12;;;;;;;10.07;4.03;;;23.60;88.20;;;;;;5038961;28;20220;-66
2023/12/25 08:42:40;;;;;;;9.37;3.97;;;23.60;88.40;;;;;;5039003;28;20263;-70
2023/12/25 08:45:08;;;;;;;7.37;4.33;;;23.70;88.60;;;;;;5049810;28;20184;-68
2023/12/25 08:47:35;;;;;;;10.20;4.43;;;23.60;88.90;;;;;;5050643;28;20291;-67
2023/12/25 08:50:02;;;;;;;12.23;4.97;;;23.50;88.90;;;;;;5051535;28;20642;-66
2023/12/25 08:52:30;;;;;;;11.50;5.27;;;23.50;89.10;;;;;;5052130;28;20680;-67
2023/12/25 08:54:57;;;;;;;7.13;4.43;;;23.50;89.20;;;;;;5047167;28;20281;-67
2023/12/25 08:57:25;;;;;;;10.97;5.40;;;23.40;89.30;;;;;;5048371;28;20216;-66
2023/12/25 08:59:52;;;;;;;10.30;5.67;;;23.30;89.20;;;;;;5057442;28;20211;-67
2023/12/25 09:02:23;;;;;;;9.47;5.73;;;23.30;89.10;;;;;;5050228;28;20701;-70
2023/12/25 09:04:50;;;;;;;12.63;5.90;;;23.30;89.10;;;;;;5045009;28;20650;-67
2023/12/25 09:07:19;;;;;;;8.23;5.47;;;23.30;89.30;;;;;;5048765;28;20274;-67
2023/12/25 09:09:46;;;;;;;12.17;6.30;;;23.30;89.50;;;;;;5056812;28;20330;-68
2023/12/25 09:12:13;;;;;;;10.43;7.10;;;23.30;89.50;;;;;;5064457;28;20638;-67
2023/12/25 09:14:41;;;;;;;12.57;7.50;;;23.30;89.60;;;;;;5052746;28;20183;-69
2023/12/25 09:17:08;;;;;;;11.00;8.87;;;23.30;89.70;;;;;;5057708;28;20235;-68
2023/12/25 09:19:35;;;;;;;10.90;8.17;;;23.30;89.60;;;;;;5051390;28;20176;-68
2023/12/25 09:22:03;;;;;;;9.13;8.30;;;23.30;89.50;;;;;;5051420;28;20188;-69
2023/12/25 09:24:31;;;;;;;12.47;8.57;;;23.30;89.50;;;;;;5054140;28;20175;-68
2023/12/25 09:26:58;;;;;;;11.20;9.97;;;23.30;89.50;;;;;;5055651;28;20184;-69
2023/12/25 09:29:25;;;;;;;12.87;10.30;;;23.30;89.60;;;;;;5053402;28;20176;-69
2023/12/25 09:31:54;;;;;;;14.33;10.83;;;23.40;89.80;;;;;;5054913;28;20647;-68
2023/12/25 09:34:21;;;;;;;15.20;10.40;;;23.40;89.80;;;;;;5055573;28;20184;-68
2023/12/25 09:36:51;;;;;;;14.37;10.83;;;23.40;89.90;;;;;;5053981;28;20212;-69
2023/12/25 09:39:18;;;;;;;15.07;11.13;;;23.40;90.00;;;;;;5050828;28;20260;-69
2023/12/25 09:41:46;;;;;;;16.73;12.07;;;23.40;90.10;;;;;;5050171;28;20235;-68
2023/12/25 09:44:13;;;;;;;15.27;12.37;;;23.50;90.10;;;;;;5054787;28;20656;-68
2023/12/25 09:46:40;;;;;;;16.50;13.40;;;23.50;90.20;;;;;;5055447;28;20218;-69
2023/12/25 09:49:08;;;;;;;14.27;13.00;;;23.50;90.20;;;;;;5048920;28;20172;-68
2023/12/25 09:51:36;;;;;;;16.27;14.10;;;23.50;90.30;;;;;;5052227;28;20263;-68
2023/12/25 09:54:04;;;;;;;15.27;13.77;;;23.60;90.40;;;;;;5063350;28;20179;-68
2023/12/25 09:56:40;;;;;;;18.50;15.40;;;23.50;90.40;;;;;;5057880;28;20692;-68
2023/12/25 09:59:08;;;;;;;18.87;13.70;;;23.50;90.40;;;;;;5055775;28;20187;-70
2023/12/25 10:01:37;;;;;;;16.97;15.13;;;23.50;90.20;;;;;;5055113;28;20267;-69
2023/12/25 10:04:06;;;;;;;19.57;16.53;;;23.50;90.20;;;;;;5055140;28;20634;-74
2023/12/25 10:06:34;;;;;;;17.53;15.53;;;23.50;90.10;;;;;;5053380;28;20326;-76
2023/12/25 10:09:03;;;;;;;18.40;15.57;;;23.50;90.00;;;;;;5053980;28;20536;-69
2023/12/25 10:11:30;;;;;;;22.27;16.33;;;23.60;89.90;;;;;;5054445;28;20192;-70
2023/12/25 10:13:58;;;;;;;19.10;16.23;;;23.60;89.90;;;;;;5050726;28;20168;-72
2023/12/25 10:16:25;;;;;;;20.33;17.03;;;23.50;89.90;;;;;;5054277;28;20262;-73
2023/12/25 10:18:52;;;;;;;19.93;17.70;;;23.60;90.00;;;;;;5054932;28;20192;-72
2023/12/25 10:21:20;;;;;;;20.20;18.03;;;23.50;90.00;;;;;;5057507;28;20259;-70
2023/12/25 10:23:48;;;;;;;19.20;15.37;;;23.50;90.00;;;;;;5055339;28;20184;-69
2023/12/25 10:26:30;;;;;;;19.00;17.13;;;23.50;89.90;;;;;;5057588;28;20720;-68
2023/12/25 10:29:10;;;;;;;19.10;16.70;;;23.50;89.60;;;;;;5058109;28;20664;-68
2023/12/25 10:31:44;;;;;;;15.87;14.63;;;23.50;89.60;;;;;;5057685;28;20274;-67
2023/12/25 10:34:11;;;;;;;18.50;15.40;;;23.60;89.50;;;;;;5053989;28;20530;-67
2023/12/25 10:36:40;;;;;;;20.27;18.07;;;23.60;89.50;;;;;;5053941;28;20216;-67
2023/12/25 10:39:07;;;;;;;20.87;18.43;;;23.70;89.70;;;;;;5051884;28;20238;-68
2023/12/25 10:41:35;;;;;;;24.53;18.97;;;23.70;89.70;;;;;;5050773;28;20230;-68
2023/12/25 10:44:04;;;;;;;22.67;19.10;;;23.80;89.70;;;;;;5052985;28;20259;-66
2023/12/25 10:46:37;;;;;;;19.97;18.23;;;23.80;89.70;;;;;;5058107;28;20546;-67
2023/12/25 10:49:06;;;;;;;23.23;19.80;;;23.80;89.70;;;;;;5073357;28;20610;-67
2023/12/25 10:51:49;;;;;;;22.47;20.17;;;23.80;89.90;;;;;;5066981;28;20172;-67
2023/12/25 10:54:16;;;;;;;21.63;19.33;;;23.80;90.00;;;;;;5065222;28;20210;-68
2023/12/25 10:56:47;;;;;;;20.70;18.67;;;23.80;89.80;;;;;;5053503;28;20294;-67
2023/12/25 10:59:33;;;;;;;19.67;17.77;;;23.80;89.60;;;;;;5068462;28;20252;-67
2023/12/25 11:02:09;;;;;;;20.37;18.33;;;23.80;89.40;;;;;;5073568;28;20173;-67
2023/12/25 11:04:37;;;;;;;22.37;20.00;;;23.80;89.30;;;;;;5074264;28;20269;-67
2023/12/25 11:07:05;;;;;;;23.47;21.10;;;23.80;89.40;;;;;;5071835;28;20262;-66
2023/12/25 11:09:32;;;;;;;22.67;20.37;;;23.90;89.60;;;;;;5050390;28;20179;-68
2023/12/25 11:12:00;;;;;;;23.67;21.73;;;23.90;89.70;;;;;;5054656;28;20188;-67
2023/12/25 11:14:29;;;;;;;25.43;22.63;;;23.90;89.70;;;;;;5047352;28;20517;-68
2023/12/25 11:16:57;;;;;;;23.30;21.50;;;23.80;89.70;;;;;;5073620;28;20249;-67
2023/12/25 11:19:24;;;;;;;23.37;21.03;;;23.80;89.60;;;;;;5062070;28;20175;-67
2023/12/25 11:21:53;;;;;;;21.70;19.67;;;23.70;89.50;;;;;;5067638;28;20258;-67
2023/12/25 11:24:20;;;;;;;23.70;20.83;;;23.60;89.50;;;;;;5054109;28;20622;-67
2023/12/25 11:26:48;;;;;;;22.03;20.17;;;23.60;89.40;;;;;;5061907;28;20187;-66
2023/12/25 11:29:17;;;;;;;20.37;18.47;;;23.50;89.40;;;;;;5052774;28;20183;-67
2023/12/25 11:31:49;;;;;;;21.83;19.67;;;23.50;89.40;;;;;;5056627;28;20266;-67
2023/12/25 11:34:21;;;;;;;20.87;18.23;;;23.40;89.40;;;;;;5068400;28;20255;-67
2023/12/25 11:36:56;;;;;;;20.30;17.67;;;23.30;89.00;;;;;;5052971;28;20219;-68
2023/12/25 11:39:31;;;;;;;19.00;17.43;;;23.30;89.20;;;;;;5042233;28;20188;-67
2023/12/25 11:42:03;;;;;;;22.03;17.30;;;23.30;89.10;;;;;;5058829;28;20617;-68
2023/12/25 11:44:32;;;;;;;19.93;15.87;;;23.30;88.80;;;;;;5048818;28;20236;-68
2023/12/25 11:47:03;;;;;;;18.20;15.53;;;23.20;88.60;;;;;;5056710;28;20184;-71
2023/12/25 11:49:39;;;;;;;20.87;16.00;;;23.30;88.40;;;;;;5067216;28;20185;-69
2023/12/25 11:52:07;;;;;;;21.03;15.30;;;23.30;88.20;;;;;;5072887;28;20221;-72
2023/12/25 11:54:37;;;;;;;18.83;15.47;;;23.20;88.30;;;;;;5060375;28;20204;-70
2023/12/25 11:57:18;;;;;;;21.17;16.63;;;23.30;88.40;;;;;;5051836;28;20199;-73
2023/12/25 11:59:46;;;;;;;18.83;16.90;;;23.20;88.40;;;;;;5054582;28;20195;-69
2023/12/25 12:02:13;;;;;;;19.90;17.80;;;23.20;88.40;;;;;;5069663;28;20244;-72
2023/12/25 12:04:40;;;;;;;21.07;18.00;;;23.20;88.50;;;;;;5072221;28;20191;-73
2023/12/25 12:07:08;;;;;;;20.60;15.80;;;23.10;88.50;;;;;;5071856;28;20236;-68
2023/12/25 12:09:35;;;;;;;19.57;17.60;;;23.20;88.60;;;;;;5061848;28;20195;-72
2023/12/25 12:12:03;;;;;;;20.37;18.33;;;23.20;88.60;;;;;;5058729;28;20191;-68
2023/12/25 12:14:31;;;;;;;17.27;15.07;;;23.10;88.60;;;;;;5050022;28;20192;-70
2023/12/25 12:16:58;;;;;;;17.83;15.93;;;23.00;88.70;;;;;;5052518;28;20340;-67
2023/12/25 12:19:27;;;;;;;19.20;17.33;;;23.00;88.80;;;;;;5052908;28;20188;-72
2023/12/25 12:21:55;;;;;;;21.40;17.13;;;22.90;88.80;;;;;;5037375;28;20188;-71
2023/12/25 12:24:27;;;;;;;17.67;15.77;;;22.90;89.00;;;;;;5061509;28;20665;-68
2023/12/25 12:27:02;;;;;;;19.10;17.40;;;22.80;89.00;;;;;;5072324;28;20183;-72
2023/12/25 12:29:29;;;;;;;19.93;18.17;;;22.80;89.10;;;;;;5069299;28;20171;-72
2023/12/25 12:31:56;;;;;;;20.20;18.50;;;22.80;89.30;;;;;;5063401;28;20195;-72
2023/12/25 12:34:24;;;;;;;19.93;18.13;;;22.80;89.50;;;;;;5072482;28;20182;-72
2023/12/25 12:37:05;;;;;;;19.47;17.87;;;22.80;89.50;;;;;;5061496;28;20215;-73
2023/12/25 12:39:33;;;;;;;22.13;20.07;;;22.70;89.40;;;;;;5043632;28;20214;-69
2023/12/25 12:42:01;;;;;;;21.93;19.83;;;22.60;89.50;;;;;;5052319;28;20223;-67
2023/12/25 12:44:29;;;;;;;22.53;20.70;;;22.50;89.60;;;;;;5050514;28;20180;-73